sensor_id;sensor_type;location;lat;lon;timestamp;P1;durP1;ratioP1;P2;durP2;ratioP2
4521;SDS011;2273;48.464;11.926;2022-08-03T00:00:06;3.83;;;3.03;;
4521;SDS011;2273;48.464;11.926;2022-08-03T00:02:37;12.03;;;3.20;;
4521;SDS011;2273;48.464;11.926;2022-08-03T00:05:03;3.70;;;3.20;;
4521;SDS011;2273;48.464;11.926;2022-08-03T00:07:28;7.10;;;4.33;;
4521;SDS011;2273;48.464;11.926;2022-08-03T00:09:54;5.03;;;2.83;;
4521;SDS011;2273;48.464;11.926;2022-08-03T00:12:19;4.43;;;3.00;;
4521;SDS011;2273;48.464;11.926;2022-08-03T00:14:45;4.50;;;3.30;;
4521;SDS011;2273;48.464;11.926;2022-08-03T00:17:10;3.93;;;2.70;;
4521;SDS011;2273;48.464;11.926;2022-08-03T00:19:36;4.40;;;2.70;;
4521;SDS011;2273;48.464;11.926;2022-08-03T00:22:01;3.60;;;2.80;;
4521;SDS011;2273;48.464;11.926;2022-08-03T00:24:27;5.83;;;3.20;;
4521;SDS011;2273;48.464;11.926;2022-08-03T00:26:52;5.87;;;3.47;;
4521;SDS011;2273;48.464;11.926;2022-08-03T00:29:18;3.40;;;2.60;;
4521;SDS011;2273;48.464;11.926;2022-08-03T00:31:43;7.80;;;2.93;;
4521;SDS011;2273;48.464;11.926;2022-08-03T00:34:08;3.33;;;3.00;;
4521;SDS011;2273;48.464;11.926;2022-08-03T00:36:34;6.27;;;3.00;;
4521;SDS011;2273;48.464;11.926;2022-08-03T00:38:59;6.70;;;3.10;;
4521;SDS011;2273;48.464;11.926;2022-08-03T00:41:25;3.10;;;2.73;;
4521;SDS011;2273;48.464;11.926;2022-08-03T00:43:51;3.10;;;2.80;;
4521;SDS011;2273;48.464;11.926;2022-08-03T00:46:16;6.43;;;3.20;;
4521;SDS011;2273;48.464;11.926;2022-08-03T00:48:41;4.03;;;2.80;;
4521;SDS011;2273;48.464;11.926;2022-08-03T00:51:07;4.93;;;3.40;;
4521;SDS011;2273;48.464;11.926;2022-08-03T00:53:33;4.13;;;3.20;;
4521;SDS011;2273;48.464;11.926;2022-08-03T00:55:59;3.60;;;2.90;;
4521;SDS011;2273;48.464;11.926;2022-08-03T00:58:25;7.50;;;3.93;;
4521;SDS011;2273;48.464;11.926;2022-08-03T01:00:50;4.93;;;3.50;;
4521;SDS011;2273;48.464;11.926;2022-08-03T01:03:16;6.03;;;3.60;;
4521;SDS011;2273;48.464;11.926;2022-08-03T01:08:22;4.80;;;3.80;;
4521;SDS011;2273;48.464;11.926;2022-08-03T01:10:56;9.00;;;4.70;;
4521;SDS011;2273;48.464;11.926;2022-08-03T01:15:54;11.63;;;8.60;;
4521;SDS011;2273;48.464;11.926;2022-08-03T01:18:37;10.30;;;7.30;;
4521;SDS011;2273;48.464;11.926;2022-08-03T01:21:09;6.30;;;5.70;;
4521;SDS011;2273;48.464;11.926;2022-08-03T01:31:52;5.27;;;3.23;;
4521;SDS011;2273;48.464;11.926;2022-08-03T01:34:22;4.80;;;3.83;;
4521;SDS011;2273;48.464;11.926;2022-08-03T01:36:51;8.87;;;4.00;;
4521;SDS011;2273;48.464;11.926;2022-08-03T01:39:18;6.43;;;3.67;;
4521;SDS011;2273;48.464;11.926;2022-08-03T01:41:49;6.63;;;3.60;;
4521;SDS011;2273;48.464;11.926;2022-08-03T01:44:23;11.77;;;3.90;;
4521;SDS011;2273;48.464;11.926;2022-08-03T01:46:50;10.53;;;3.80;;
4521;SDS011;2273;48.464;11.926;2022-08-03T01:49:16;5.53;;;4.00;;
4521;SDS011;2273;48.464;11.926;2022-08-03T01:51:42;9.47;;;4.57;;
4521;SDS011;2273;48.464;11.926;2022-08-03T01:54:10;8.00;;;4.23;;
4521;SDS011;2273;48.464;11.926;2022-08-03T01:56:36;5.10;;;4.37;;
4521;SDS011;2273;48.464;11.926;2022-08-03T01:59:03;9.47;;;4.63;;
4521;SDS011;2273;48.464;11.926;2022-08-03T02:01:29;13.90;;;5.70;;
4521;SDS011;2273;48.464;11.926;2022-08-03T02:03:56;8.90;;;6.17;;
4521;SDS011;2273;48.464;11.926;2022-08-03T02:06:23;7.53;;;4.60;;
4521;SDS011;2273;48.464;11.926;2022-08-03T02:08:50;5.13;;;4.07;;
4521;SDS011;2273;48.464;11.926;2022-08-03T02:11:17;13.30;;;3.60;;
4521;SDS011;2273;48.464;11.926;2022-08-03T02:13:42;5.00;;;4.10;;
4521;SDS011;2273;48.464;11.926;2022-08-03T02:16:08;6.97;;;3.47;;
4521;SDS011;2273;48.464;11.926;2022-08-03T02:18:34;6.40;;;3.40;;
4521;SDS011;2273;48.464;11.926;2022-08-03T02:21:03;7.80;;;3.70;;
4521;SDS011;2273;48.464;11.926;2022-08-03T02:23:29;12.67;;;3.80;;
4521;SDS011;2273;48.464;11.926;2022-08-03T02:25:59;7.93;;;4.00;;
4521;SDS011;2273;48.464;11.926;2022-08-03T02:28:37;8.00;;;3.80;;
4521;SDS011;2273;48.464;11.926;2022-08-03T02:31:06;7.53;;;4.20;;
4521;SDS011;2273;48.464;11.926;2022-08-03T02:33:37;8.80;;;4.27;;
4521;SDS011;2273;48.464;11.926;2022-08-03T02:36:05;8.50;;;3.77;;
4521;SDS011;2273;48.464;11.926;2022-08-03T02:38:33;5.50;;;4.20;;
4521;SDS011;2273;48.464;11.926;2022-08-03T02:41:01;4.87;;;3.93;;
4521;SDS011;2273;48.464;11.926;2022-08-03T02:43:29;6.17;;;3.97;;
4521;SDS011;2273;48.464;11.926;2022-08-03T02:45:56;22.23;;;4.13;;
4521;SDS011;2273;48.464;11.926;2022-08-03T02:48:25;4.87;;;3.80;;
4521;SDS011;2273;48.464;11.926;2022-08-03T02:50:53;4.87;;;4.10;;
4521;SDS011;2273;48.464;11.926;2022-08-03T02:53:21;6.83;;;4.33;;
4521;SDS011;2273;48.464;11.926;2022-08-03T02:55:48;4.37;;;3.97;;
4521;SDS011;2273;48.464;11.926;2022-08-03T02:58:14;8.70;;;4.50;;
4521;SDS011;2273;48.464;11.926;2022-08-03T03:00:43;4.10;;;3.67;;
4521;SDS011;2273;48.464;11.926;2022-08-03T03:03:08;9.60;;;3.83;;
4521;SDS011;2273;48.464;11.926;2022-08-03T03:05:34;4.17;;;3.40;;
4521;SDS011;2273;48.464;11.926;2022-08-03T03:08:01;6.53;;;3.50;;
4521;SDS011;2273;48.464;11.926;2022-08-03T03:10:27;4.63;;;3.67;;
4521;SDS011;2273;48.464;11.926;2022-08-03T03:12:54;8.43;;;4.00;;
4521;SDS011;2273;48.464;11.926;2022-08-03T03:15:21;4.20;;;3.40;;
4521;SDS011;2273;48.464;11.926;2022-08-03T03:17:48;8.10;;;3.63;;
4521;SDS011;2273;48.464;11.926;2022-08-03T03:20:14;4.00;;;3.43;;
4521;SDS011;2273;48.464;11.926;2022-08-03T03:22:40;6.77;;;3.97;;
4521;SDS011;2273;48.464;11.926;2022-08-03T03:25:06;6.43;;;3.90;;
4521;SDS011;2273;48.464;11.926;2022-08-03T03:27:32;9.37;;;3.50;;
4521;SDS011;2273;48.464;11.926;2022-08-03T03:29:58;12.10;;;3.70;;
4521;SDS011;2273;48.464;11.926;2022-08-03T03:32:25;8.87;;;3.90;;
4521;SDS011;2273;48.464;11.926;2022-08-03T03:34:51;5.50;;;4.07;;
4521;SDS011;2273;48.464;11.926;2022-08-03T03:37:18;5.00;;;4.33;;
4521;SDS011;2273;48.464;11.926;2022-08-03T03:39:43;7.53;;;3.60;;
4521;SDS011;2273;48.464;11.926;2022-08-03T03:42:09;7.23;;;4.50;;
4521;SDS011;2273;48.464;11.926;2022-08-03T03:44:35;4.60;;;3.80;;
4521;SDS011;2273;48.464;11.926;2022-08-03T03:47:00;6.40;;;3.63;;
4521;SDS011;2273;48.464;11.926;2022-08-03T03:49:25;5.37;;;3.77;;
4521;SDS011;2273;48.464;11.926;2022-08-03T03:51:52;6.00;;;4.30;;
4521;SDS011;2273;48.464;11.926;2022-08-03T03:54:19;10.90;;;3.80;;
4521;SDS011;2273;48.464;11.926;2022-08-03T03:56:45;7.60;;;3.27;;
4521;SDS011;2273;48.464;11.926;2022-08-03T03:59:11;6.30;;;4.03;;
4521;SDS011;2273;48.464;11.926;2022-08-03T04:01:37;5.40;;;3.50;;
4521;SDS011;2273;48.464;11.926;2022-08-03T04:04:03;9.67;;;4.23;;
4521;SDS011;2273;48.464;11.926;2022-08-03T04:06:49;5.13;;;3.93;;
4521;SDS011;2273;48.464;11.926;2022-08-03T04:09:37;5.03;;;4.00;;
4521;SDS011;2273;48.464;11.926;2022-08-03T04:12:21;12.20;;;3.50;;
4521;SDS011;2273;48.464;11.926;2022-08-03T04:14:48;5.60;;;3.73;;
4521;SDS011;2273;48.464;11.926;2022-08-03T04:17:15;5.13;;;4.13;;
4521;SDS011;2273;48.464;11.926;2022-08-03T04:19:42;8.40;;;3.90;;
4521;SDS011;2273;48.464;11.926;2022-08-03T04:22:17;6.70;;;4.00;;
4521;SDS011;2273;48.464;11.926;2022-08-03T04:25:00;6.67;;;4.00;;
4521;SDS011;2273;48.464;11.926;2022-08-03T04:27:31;7.43;;;4.13;;
4521;SDS011;2273;48.464;11.926;2022-08-03T04:29:57;5.23;;;4.20;;
4521;SDS011;2273;48.464;11.926;2022-08-03T04:32:27;9.73;;;4.57;;
4521;SDS011;2273;48.464;11.926;2022-08-03T04:34:52;10.17;;;5.10;;
4521;SDS011;2273;48.464;11.926;2022-08-03T04:40:05;10.80;;;4.33;;
4521;SDS011;2273;48.464;11.926;2022-08-03T04:42:32;7.87;;;4.57;;
4521;SDS011;2273;48.464;11.926;2022-08-03T04:44:58;10.83;;;5.37;;
4521;SDS011;2273;48.464;11.926;2022-08-03T04:47:24;5.60;;;4.20;;
4521;SDS011;2273;48.464;11.926;2022-08-03T04:49:49;8.40;;;4.20;;
4521;SDS011;2273;48.464;11.926;2022-08-03T04:52:15;8.13;;;3.67;;
4521;SDS011;2273;48.464;11.926;2022-08-03T04:54:41;15.37;;;3.97;;
4521;SDS011;2273;48.464;11.926;2022-08-03T04:57:08;6.00;;;4.47;;
4521;SDS011;2273;48.464;11.926;2022-08-03T04:59:35;6.20;;;4.17;;
4521;SDS011;2273;48.464;11.926;2022-08-03T05:02:00;7.10;;;3.83;;
4521;SDS011;2273;48.464;11.926;2022-08-03T05:04:26;10.93;;;3.77;;
4521;SDS011;2273;48.464;11.926;2022-08-03T05:06:51;16.00;;;4.73;;
4521;SDS011;2273;48.464;11.926;2022-08-03T05:09:17;9.13;;;4.50;;
4521;SDS011;2273;48.464;11.926;2022-08-03T05:11:42;13.63;;;5.53;;
4521;SDS011;2273;48.464;11.926;2022-08-03T05:14:08;4.20;;;3.80;;
4521;SDS011;2273;48.464;11.926;2022-08-03T05:16:33;6.93;;;4.23;;
4521;SDS011;2273;48.464;11.926;2022-08-03T05:18:59;6.00;;;4.30;;
4521;SDS011;2273;48.464;11.926;2022-08-03T05:21:24;6.30;;;4.13;;
4521;SDS011;2273;48.464;11.926;2022-08-03T05:23:49;9.63;;;4.10;;
4521;SDS011;2273;48.464;11.926;2022-08-03T05:26:15;6.63;;;4.63;;
4521;SDS011;2273;48.464;11.926;2022-08-03T05:28:40;7.87;;;5.03;;
4521;SDS011;2273;48.464;11.926;2022-08-03T05:31:06;12.63;;;5.80;;
4521;SDS011;2273;48.464;11.926;2022-08-03T05:33:31;9.23;;;5.07;;
4521;SDS011;2273;48.464;11.926;2022-08-03T05:35:57;8.03;;;5.07;;
4521;SDS011;2273;48.464;11.926;2022-08-03T05:38:23;10.33;;;5.50;;
4521;SDS011;2273;48.464;11.926;2022-08-03T05:40:49;6.53;;;5.17;;
4521;SDS011;2273;48.464;11.926;2022-08-03T05:43:15;9.17;;;6.00;;
4521;SDS011;2273;48.464;11.926;2022-08-03T05:45:40;7.93;;;5.60;;
4521;SDS011;2273;48.464;11.926;2022-08-03T05:48:06;8.47;;;5.17;;
4521;SDS011;2273;48.464;11.926;2022-08-03T05:50:32;7.07;;;4.73;;
4521;SDS011;2273;48.464;11.926;2022-08-03T05:52:57;6.80;;;4.93;;
4521;SDS011;2273;48.464;11.926;2022-08-03T05:55:22;7.43;;;4.83;;
4521;SDS011;2273;48.464;11.926;2022-08-03T05:57:48;17.50;;;6.93;;
4521;SDS011;2273;48.464;11.926;2022-08-03T06:00:13;9.53;;;5.80;;
4521;SDS011;2273;48.464;11.926;2022-08-03T06:02:39;13.23;;;5.23;;
4521;SDS011;2273;48.464;11.926;2022-08-03T06:05:06;7.20;;;5.03;;
4521;SDS011;2273;48.464;11.926;2022-08-03T06:07:32;11.53;;;6.00;;
4521;SDS011;2273;48.464;11.926;2022-08-03T06:09:58;8.20;;;5.83;;
4521;SDS011;2273;48.464;11.926;2022-08-03T06:12:26;12.17;;;6.20;;
4521;SDS011;2273;48.464;11.926;2022-08-03T06:14:52;8.60;;;6.17;;
4521;SDS011;2273;48.464;11.926;2022-08-03T06:17:17;11.30;;;6.63;;
4521;SDS011;2273;48.464;11.926;2022-08-03T06:19:42;10.63;;;6.00;;
4521;SDS011;2273;48.464;11.926;2022-08-03T06:22:08;11.07;;;5.77;;
4521;SDS011;2273;48.464;11.926;2022-08-03T06:24:33;9.67;;;4.80;;
4521;SDS011;2273;48.464;11.926;2022-08-03T06:26:59;6.00;;;4.87;;
4521;SDS011;2273;48.464;11.926;2022-08-03T06:29:24;8.90;;;5.50;;
4521;SDS011;2273;48.464;11.926;2022-08-03T06:31:50;7.87;;;5.43;;
4521;SDS011;2273;48.464;11.926;2022-08-03T06:34:15;6.73;;;5.10;;
4521;SDS011;2273;48.464;11.926;2022-08-03T06:36:41;7.80;;;3.63;;
4521;SDS011;2273;48.464;11.926;2022-08-03T06:39:06;4.97;;;3.40;;
4521;SDS011;2273;48.464;11.926;2022-08-03T06:41:32;5.83;;;3.50;;
4521;SDS011;2273;48.464;11.926;2022-08-03T06:43:58;4.93;;;3.13;;
4521;SDS011;2273;48.464;11.926;2022-08-03T06:46:24;5.87;;;4.07;;
4521;SDS011;2273;48.464;11.926;2022-08-03T06:48:49;9.40;;;3.60;;
4521;SDS011;2273;48.464;11.926;2022-08-03T06:51:15;6.27;;;3.73;;
4521;SDS011;2273;48.464;11.926;2022-08-03T06:53:40;9.13;;;3.70;;
4521;SDS011;2273;48.464;11.926;2022-08-03T06:56:06;5.67;;;4.30;;
4521;SDS011;2273;48.464;11.926;2022-08-03T06:58:32;5.37;;;3.07;;
4521;SDS011;2273;48.464;11.926;2022-08-03T07:00:58;6.90;;;3.30;;
4521;SDS011;2273;48.464;11.926;2022-08-03T07:03:24;7.13;;;3.23;;
4521;SDS011;2273;48.464;11.926;2022-08-03T07:05:49;5.43;;;2.97;;
4521;SDS011;2273;48.464;11.926;2022-08-03T07:08:15;10.40;;;2.77;;
4521;SDS011;2273;48.464;11.926;2022-08-03T07:10:41;4.10;;;2.90;;
4521;SDS011;2273;48.464;11.926;2022-08-03T07:13:06;4.03;;;3.47;;
4521;SDS011;2273;48.464;11.926;2022-08-03T07:15:32;5.80;;;3.07;;
4521;SDS011;2273;48.464;11.926;2022-08-03T07:17:58;4.87;;;3.10;;
4521;SDS011;2273;48.464;11.926;2022-08-03T07:20:23;2.97;;;2.67;;
4521;SDS011;2273;48.464;11.926;2022-08-03T07:22:49;8.07;;;3.07;;
4521;SDS011;2273;48.464;11.926;2022-08-03T07:25:14;4.73;;;3.30;;
4521;SDS011;2273;48.464;11.926;2022-08-03T07:27:43;6.27;;;2.93;;
4521;SDS011;2273;48.464;11.926;2022-08-03T07:30:10;7.83;;;2.93;;
4521;SDS011;2273;48.464;11.926;2022-08-03T07:32:35;5.27;;;2.63;;
4521;SDS011;2273;48.464;11.926;2022-08-03T07:35:01;5.90;;;3.17;;
4521;SDS011;2273;48.464;11.926;2022-08-03T07:37:27;10.83;;;2.90;;
4521;SDS011;2273;48.464;11.926;2022-08-03T07:39:53;3.13;;;2.57;;
4521;SDS011;2273;48.464;11.926;2022-08-03T07:42:19;4.47;;;2.23;;
4521;SDS011;2273;48.464;11.926;2022-08-03T07:44:44;6.17;;;2.70;;
4521;SDS011;2273;48.464;11.926;2022-08-03T07:47:10;4.23;;;2.30;;
4521;SDS011;2273;48.464;11.926;2022-08-03T07:49:39;3.20;;;2.50;;
4521;SDS011;2273;48.464;11.926;2022-08-03T07:52:05;4.90;;;2.53;;
4521;SDS011;2273;48.464;11.926;2022-08-03T07:54:48;2.83;;;2.10;;
4521;SDS011;2273;48.464;11.926;2022-08-03T07:57:14;3.23;;;2.80;;
4521;SDS011;2273;48.464;11.926;2022-08-03T07:59:39;4.73;;;2.50;;
4521;SDS011;2273;48.464;11.926;2022-08-03T08:02:05;2.63;;;2.30;;
4521;SDS011;2273;48.464;11.926;2022-08-03T08:04:31;3.13;;;2.40;;
4521;SDS011;2273;48.464;11.926;2022-08-03T08:06:56;8.17;;;2.20;;
4521;SDS011;2273;48.464;11.926;2022-08-03T08:09:21;3.77;;;2.73;;
4521;SDS011;2273;48.464;11.926;2022-08-03T08:11:48;4.60;;;2.60;;
4521;SDS011;2273;48.464;11.926;2022-08-03T08:14:13;2.57;;;2.37;;
4521;SDS011;2273;48.464;11.926;2022-08-03T08:16:39;6.00;;;2.60;;
4521;SDS011;2273;48.464;11.926;2022-08-03T08:19:04;4.83;;;2.60;;
4521;SDS011;2273;48.464;11.926;2022-08-03T08:21:30;7.60;;;3.00;;
4521;SDS011;2273;48.464;11.926;2022-08-03T08:23:55;6.07;;;2.97;;
4521;SDS011;2273;48.464;11.926;2022-08-03T08:26:20;5.17;;;2.90;;
4521;SDS011;2273;48.464;11.926;2022-08-03T08:28:46;7.67;;;2.40;;
4521;SDS011;2273;48.464;11.926;2022-08-03T08:31:12;6.53;;;2.80;;
4521;SDS011;2273;48.464;11.926;2022-08-03T08:33:37;6.53;;;2.40;;
4521;SDS011;2273;48.464;11.926;2022-08-03T08:36:03;6.20;;;2.50;;
4521;SDS011;2273;48.464;11.926;2022-08-03T08:38:28;3.67;;;2.50;;
4521;SDS011;2273;48.464;11.926;2022-08-03T08:40:54;4.00;;;2.50;;
4521;SDS011;2273;48.464;11.926;2022-08-03T08:43:20;11.03;;;3.10;;
4521;SDS011;2273;48.464;11.926;2022-08-03T08:45:47;5.40;;;2.53;;
4521;SDS011;2273;48.464;11.926;2022-08-03T08:48:14;3.97;;;2.80;;
4521;SDS011;2273;48.464;11.926;2022-08-03T08:50:41;17.17;;;2.90;;
4521;SDS011;2273;48.464;11.926;2022-08-03T08:53:07;3.73;;;2.90;;
4521;SDS011;2273;48.464;11.926;2022-08-03T08:55:36;11.67;;;2.77;;
4521;SDS011;2273;48.464;11.926;2022-08-03T08:58:03;6.87;;;2.70;;
4521;SDS011;2273;48.464;11.926;2022-08-03T09:00:30;3.50;;;2.17;;
4521;SDS011;2273;48.464;11.926;2022-08-03T09:02:55;5.20;;;2.70;;
4521;SDS011;2273;48.464;11.926;2022-08-03T09:05:21;3.30;;;2.30;;
4521;SDS011;2273;48.464;11.926;2022-08-03T09:07:46;2.73;;;2.37;;
4521;SDS011;2273;48.464;11.926;2022-08-03T09:10:13;7.07;;;2.20;;
4521;SDS011;2273;48.464;11.926;2022-08-03T09:12:47;8.50;;;2.23;;
4521;SDS011;2273;48.464;11.926;2022-08-03T09:17:42;3.30;;;2.10;;
4521;SDS011;2273;48.464;11.926;2022-08-03T09:20:08;4.90;;;2.23;;
4521;SDS011;2273;48.464;11.926;2022-08-03T09:22:34;1.83;;;1.73;;
4521;SDS011;2273;48.464;11.926;2022-08-03T09:25:04;7.20;;;1.90;;
4521;SDS011;2273;48.464;11.926;2022-08-03T09:27:40;3.30;;;2.30;;
4521;SDS011;2273;48.464;11.926;2022-08-03T09:30:17;3.10;;;1.80;;
4521;SDS011;2273;48.464;11.926;2022-08-03T09:32:43;2.90;;;2.00;;
4521;SDS011;2273;48.464;11.926;2022-08-03T09:35:11;4.30;;;2.43;;
4521;SDS011;2273;48.464;11.926;2022-08-03T09:37:37;1.90;;;1.80;;
4521;SDS011;2273;48.464;11.926;2022-08-03T09:40:03;2.67;;;1.50;;
4521;SDS011;2273;48.464;11.926;2022-08-03T09:42:29;2.40;;;1.60;;
4521;SDS011;2273;48.464;11.926;2022-08-03T09:44:55;5.17;;;1.97;;
4521;SDS011;2273;48.464;11.926;2022-08-03T09:49:58;2.83;;;1.57;;
4521;SDS011;2273;48.464;11.926;2022-08-03T09:52:33;6.73;;;1.93;;
4521;SDS011;2273;48.464;11.926;2022-08-03T09:55:00;5.17;;;1.60;;
4521;SDS011;2273;48.464;11.926;2022-08-03T09:57:27;2.33;;;1.73;;
4521;SDS011;2273;48.464;11.926;2022-08-03T10:00:04;2.07;;;1.87;;
4521;SDS011;2273;48.464;11.926;2022-08-03T10:02:38;2.00;;;1.60;;
4521;SDS011;2273;48.464;11.926;2022-08-03T10:05:05;1.90;;;1.60;;
4521;SDS011;2273;48.464;11.926;2022-08-03T10:07:44;2.27;;;1.57;;
4521;SDS011;2273;48.464;11.926;2022-08-03T10:10:11;7.23;;;1.83;;
4521;SDS011;2273;48.464;11.926;2022-08-03T10:12:39;3.37;;;1.77;;
4521;SDS011;2273;48.464;11.926;2022-08-03T10:15:05;6.10;;;1.83;;
4521;SDS011;2273;48.464;11.926;2022-08-03T10:17:31;3.33;;;1.53;;
4521;SDS011;2273;48.464;11.926;2022-08-03T10:19:57;1.60;;;1.50;;
4521;SDS011;2273;48.464;11.926;2022-08-03T10:22:28;2.93;;;1.93;;
4521;SDS011;2273;48.464;11.926;2022-08-03T10:25:06;1.77;;;1.63;;
4521;SDS011;2273;48.464;11.926;2022-08-03T10:27:33;4.00;;;1.30;;
4521;SDS011;2273;48.464;11.926;2022-08-03T10:30:05;4.87;;;1.40;;
4521;SDS011;2273;48.464;11.926;2022-08-03T10:32:42;6.63;;;1.40;;
4521;SDS011;2273;48.464;11.926;2022-08-03T10:35:13;3.27;;;1.63;;
4521;SDS011;2273;48.464;11.926;2022-08-03T10:37:59;2.73;;;1.57;;
4521;SDS011;2273;48.464;11.926;2022-08-03T10:40:27;2.60;;;1.57;;
4521;SDS011;2273;48.464;11.926;2022-08-03T10:42:55;2.57;;;1.40;;
4521;SDS011;2273;48.464;11.926;2022-08-03T10:45:24;4.13;;;1.83;;
4521;SDS011;2273;48.464;11.926;2022-08-03T10:47:51;2.17;;;1.50;;
4521;SDS011;2273;48.464;11.926;2022-08-03T10:50:18;3.43;;;1.43;;
4521;SDS011;2273;48.464;11.926;2022-08-03T10:55:28;1.60;;;1.40;;
4521;SDS011;2273;48.464;11.926;2022-08-03T10:58:12;4.13;;;1.50;;
4521;SDS011;2273;48.464;11.926;2022-08-03T11:00:47;2.23;;;1.50;;
4521;SDS011;2273;48.464;11.926;2022-08-03T11:03:15;1.50;;;1.40;;
4521;SDS011;2273;48.464;11.926;2022-08-03T11:05:47;3.10;;;1.57;;
4521;SDS011;2273;48.464;11.926;2022-08-03T11:08:28;4.50;;;1.30;;
4521;SDS011;2273;48.464;11.926;2022-08-03T11:11:41;2.40;;;1.53;;
4521;SDS011;2273;48.464;11.926;2022-08-03T11:13:56;1.20;;;1.10;;
4521;SDS011;2273;48.464;11.926;2022-08-03T11:16:23;1.93;;;1.40;;
4521;SDS011;2273;48.464;11.926;2022-08-03T11:18:54;1.90;;;1.37;;
4521;SDS011;2273;48.464;11.926;2022-08-03T11:21:20;1.47;;;0.90;;
4521;SDS011;2273;48.464;11.926;2022-08-03T11:40:36;1.03;;;1.03;;
4521;SDS011;2273;48.464;11.926;2022-08-03T11:43:08;2.33;;;1.23;;
4521;SDS011;2273;48.464;11.926;2022-08-03T11:45:35;1.00;;;1.00;;
4521;SDS011;2273;48.464;11.926;2022-08-03T11:48:03;1.70;;;1.30;;
4521;SDS011;2273;48.464;11.926;2022-08-03T11:50:38;1.53;;;1.27;;
4521;SDS011;2273;48.464;11.926;2022-08-03T11:53:04;3.63;;;1.30;;
4521;SDS011;2273;48.464;11.926;2022-08-03T11:55:31;4.30;;;1.20;;
4521;SDS011;2273;48.464;11.926;2022-08-03T11:58:00;1.30;;;1.20;;
4521;SDS011;2273;48.464;11.926;2022-08-03T12:00:29;4.20;;;1.20;;
4521;SDS011;2273;48.464;11.926;2022-08-03T12:03:00;1.33;;;1.20;;
4521;SDS011;2273;48.464;11.926;2022-08-03T12:05:34;2.83;;;1.10;;
4521;SDS011;2273;48.464;11.926;2022-08-03T12:08:01;1.20;;;1.10;;
4521;SDS011;2273;48.464;11.926;2022-08-03T12:10:26;2.70;;;1.07;;
4521;SDS011;2273;48.464;11.926;2022-08-03T12:12:54;1.20;;;1.10;;
4521;SDS011;2273;48.464;11.926;2022-08-03T12:15:24;1.40;;;1.30;;
4521;SDS011;2273;48.464;11.926;2022-08-03T12:17:51;1.90;;;0.93;;
4521;SDS011;2273;48.464;11.926;2022-08-03T12:20:24;2.50;;;1.00;;
4521;SDS011;2273;48.464;11.926;2022-08-03T12:22:50;1.63;;;1.10;;
4521;SDS011;2273;48.464;11.926;2022-08-03T12:25:21;1.00;;;0.90;;
4521;SDS011;2273;48.464;11.926;2022-08-03T12:27:48;2.23;;;1.37;;
4521;SDS011;2273;48.464;11.926;2022-08-03T12:30:14;1.10;;;0.90;;
4521;SDS011;2273;48.464;11.926;2022-08-03T12:32:41;1.50;;;1.13;;
4521;SDS011;2273;48.464;11.926;2022-08-03T12:35:07;1.53;;;1.20;;
4521;SDS011;2273;48.464;11.926;2022-08-03T12:37:33;3.43;;;0.90;;
4521;SDS011;2273;48.464;11.926;2022-08-03T12:39:59;5.63;;;0.93;;
4521;SDS011;2273;48.464;11.926;2022-08-03T12:42:32;1.10;;;0.90;;
4521;SDS011;2273;48.464;11.926;2022-08-03T12:44:59;1.00;;;0.80;;
4521;SDS011;2273;48.464;11.926;2022-08-03T12:47:25;8.93;;;0.90;;
4521;SDS011;2273;48.464;11.926;2022-08-03T12:49:51;0.97;;;0.97;;
4521;SDS011;2273;48.464;11.926;2022-08-03T12:52:18;1.00;;;1.00;;
4521;SDS011;2273;48.464;11.926;2022-08-03T12:54:57;0.80;;;0.80;;
4521;SDS011;2273;48.464;11.926;2022-08-03T12:57:24;2.47;;;0.97;;
4521;SDS011;2273;48.464;11.926;2022-08-03T12:59:49;3.03;;;1.03;;
4521;SDS011;2273;48.464;11.926;2022-08-03T13:02:20;1.00;;;1.00;;
4521;SDS011;2273;48.464;11.926;2022-08-03T13:04:47;1.97;;;0.93;;
4521;SDS011;2273;48.464;11.926;2022-08-03T13:07:13;3.17;;;0.80;;
4521;SDS011;2273;48.464;11.926;2022-08-03T13:09:44;0.80;;;0.80;;
4521;SDS011;2273;48.464;11.926;2022-08-03T13:12:11;1.10;;;1.00;;
4521;SDS011;2273;48.464;11.926;2022-08-03T13:14:37;1.00;;;1.00;;
4521;SDS011;2273;48.464;11.926;2022-08-03T13:17:03;1.87;;;0.90;;
4521;SDS011;2273;48.464;11.926;2022-08-03T13:19:31;2.67;;;0.80;;
4521;SDS011;2273;48.464;11.926;2022-08-03T13:21:57;1.10;;;1.10;;
4521;SDS011;2273;48.464;11.926;2022-08-03T13:24:23;3.80;;;1.00;;
4521;SDS011;2273;48.464;11.926;2022-08-03T13:26:48;1.17;;;0.90;;
4521;SDS011;2273;48.464;11.926;2022-08-03T13:29:15;3.33;;;1.00;;
4521;SDS011;2273;48.464;11.926;2022-08-03T13:31:41;1.10;;;1.00;;
4521;SDS011;2273;48.464;11.926;2022-08-03T13:34:07;2.50;;;0.90;;
4521;SDS011;2273;48.464;11.926;2022-08-03T13:36:32;1.00;;;1.00;;
4521;SDS011;2273;48.464;11.926;2022-08-03T13:38:57;3.03;;;0.90;;
4521;SDS011;2273;48.464;11.926;2022-08-03T13:41:23;1.57;;;0.97;;
4521;SDS011;2273;48.464;11.926;2022-08-03T13:43:48;2.20;;;0.90;;
4521;SDS011;2273;48.464;11.926;2022-08-03T13:46:14;1.20;;;1.10;;
4521;SDS011;2273;48.464;11.926;2022-08-03T13:48:40;1.40;;;0.80;;
4521;SDS011;2273;48.464;11.926;2022-08-03T13:51:05;0.90;;;0.90;;
4521;SDS011;2273;48.464;11.926;2022-08-03T13:53:31;1.00;;;1.00;;
4521;SDS011;2273;48.464;11.926;2022-08-03T13:55:56;16.93;;;1.03;;
4521;SDS011;2273;48.464;11.926;2022-08-03T13:58:22;1.10;;;1.00;;
4521;SDS011;2273;48.464;11.926;2022-08-03T14:00:47;2.73;;;1.20;;
4521;SDS011;2273;48.464;11.926;2022-08-03T14:03:12;5.33;;;0.90;;
4521;SDS011;2273;48.464;11.926;2022-08-03T14:05:38;1.63;;;1.00;;
4521;SDS011;2273;48.464;11.926;2022-08-03T14:08:04;1.20;;;1.03;;
4521;SDS011;2273;48.464;11.926;2022-08-03T14:10:35;1.30;;;0.87;;
4521;SDS011;2273;48.464;11.926;2022-08-03T14:13:02;0.80;;;0.80;;
4521;SDS011;2273;48.464;11.926;2022-08-03T14:15:28;2.80;;;1.10;;
4521;SDS011;2273;48.464;11.926;2022-08-03T14:17:54;1.20;;;0.90;;
4521;SDS011;2273;48.464;11.926;2022-08-03T14:20:20;1.43;;;1.00;;
4521;SDS011;2273;48.464;11.926;2022-08-03T14:22:45;2.40;;;0.83;;
4521;SDS011;2273;48.464;11.926;2022-08-03T14:25:11;4.13;;;0.83;;
4521;SDS011;2273;48.464;11.926;2022-08-03T14:27:36;2.70;;;1.00;;
4521;SDS011;2273;48.464;11.926;2022-08-03T14:30:02;0.73;;;0.73;;
4521;SDS011;2273;48.464;11.926;2022-08-03T14:32:28;2.50;;;1.20;;
4521;SDS011;2273;48.464;11.926;2022-08-03T14:34:54;1.00;;;0.90;;
4521;SDS011;2273;48.464;11.926;2022-08-03T14:37:19;1.20;;;1.00;;
4521;SDS011;2273;48.464;11.926;2022-08-03T14:39:45;1.10;;;0.83;;
4521;SDS011;2273;48.464;11.926;2022-08-03T14:42:11;2.20;;;0.90;;
4521;SDS011;2273;48.464;11.926;2022-08-03T14:44:37;1.53;;;0.90;;
4521;SDS011;2273;48.464;11.926;2022-08-03T14:47:02;0.90;;;0.90;;
4521;SDS011;2273;48.464;11.926;2022-08-03T14:49:28;2.30;;;0.90;;
4521;SDS011;2273;48.464;11.926;2022-08-03T14:51:53;1.20;;;1.10;;
4521;SDS011;2273;48.464;11.926;2022-08-03T14:54:19;1.63;;;1.00;;
4521;SDS011;2273;48.464;11.926;2022-08-03T14:56:45;1.00;;;1.00;;
4521;SDS011;2273;48.464;11.926;2022-08-03T14:59:11;5.63;;;1.00;;
4521;SDS011;2273;48.464;11.926;2022-08-03T15:01:36;1.13;;;0.80;;
4521;SDS011;2273;48.464;11.926;2022-08-03T15:04:01;1.50;;;0.90;;
4521;SDS011;2273;48.464;11.926;2022-08-03T15:06:27;1.10;;;1.00;;
4521;SDS011;2273;48.464;11.926;2022-08-03T15:08:52;0.93;;;0.80;;
4521;SDS011;2273;48.464;11.926;2022-08-03T15:11:18;1.83;;;0.90;;
4521;SDS011;2273;48.464;11.926;2022-08-03T15:13:43;0.90;;;0.90;;
4521;SDS011;2273;48.464;11.926;2022-08-03T15:16:09;9.73;;;1.03;;
4521;SDS011;2273;48.464;11.926;2022-08-03T15:18:34;2.57;;;0.90;;
4521;SDS011;2273;48.464;11.926;2022-08-03T15:21:00;2.40;;;1.20;;
4521;SDS011;2273;48.464;11.926;2022-08-03T15:23:26;0.80;;;0.80;;
4521;SDS011;2273;48.464;11.926;2022-08-03T15:25:51;1.50;;;1.03;;
4521;SDS011;2273;48.464;11.926;2022-08-03T15:28:17;1.20;;;0.83;;
4521;SDS011;2273;48.464;11.926;2022-08-03T15:30:42;1.00;;;0.77;;
4521;SDS011;2273;48.464;11.926;2022-08-03T15:33:08;1.00;;;0.80;;
4521;SDS011;2273;48.464;11.926;2022-08-03T15:35:33;1.53;;;1.10;;
4521;SDS011;2273;48.464;11.926;2022-08-03T15:37:59;1.10;;;1.00;;
4521;SDS011;2273;48.464;11.926;2022-08-03T15:40:25;0.70;;;0.70;;